Time;durP1;ratioP1;P1;durP2;ratioP2;P2;SDS_P1;SDS_P2;PMS_P1;PMS_P2;Temp;Humidity;BMP_temperature;BMP_pressure;BME280_temperature;BME280_humidity;BME280_pressure;Samples;Min_cycle;Max_cycle;Signal;HPM_P1;HPM_P2
2023/06/12 00:00:05;;;;;;;1999.90;999.90;;;14.10;63.30;;;;;;5039065;28;20037;-85
2023/06/12 00:02:31;;;;;;;1999.90;999.90;;;14.10;63.30;;;;;;5035111;28;20133;-85
2023/06/12 00:04:59;;;;;;;1999.90;999.90;;;14.10;63.30;;;;;;5037853;28;20068;-85
2023/06/12 00:07:28;;;;;;;1999.90;999.90;;;14.10;63.40;;;;;;5036379;28;20025;-85
2023/06/12 00:09:54;;;;;;;1999.90;999.90;;;14.00;63.30;;;;;;5033693;28;20504;-85
2023/06/12 00:12:19;;;;;;;1999.90;999.90;;;14.00;63.50;;;;;;5036134;28;20060;-85
2023/06/12 00:14:45;;;;;;;1999.90;999.90;;;14.10;63.40;;;;;;5031132;28;20029;-86
2023/06/12 00:17:11;;;;;;;1999.90;999.90;;;14.10;63.30;;;;;;5036311;28;20025;-86
2023/06/12 00:19:37;;;;;;;1999.90;999.90;;;14.00;63.80;;;;;;5032555;28;20033;-86
2023/06/12 00:22:03;;;;;;;1999.90;999.90;;;13.90;63.90;;;;;;5034959;28;20128;-86
2023/06/12 00:24:29;;;;;;;1999.90;999.90;;;14.00;63.50;;;;;;5031613;28;20129;-86
2023/06/12 00:26:54;;;;;;;1999.90;999.90;;;14.00;63.70;;;;;;5018460;28;20060;-85
2023/06/12 00:29:20;;;;;;;1999.90;999.90;;;14.00;63.40;;;;;;5016837;28;20125;-85
2023/06/12 00:31:45;;;;;;;1999.90;999.90;;;14.00;63.80;;;;;;5032006;28;20509;-86
2023/06/12 00:34:11;;;;;;;1999.90;999.90;;;13.90;64.00;;;;;;5030610;28;20052;-85
2023/06/12 00:36:37;;;;;;;1999.90;999.90;;;13.80;64.50;;;;;;5038028;28;20038;-85
2023/06/12 00:39:03;;;;;;;1999.90;999.90;;;13.80;64.50;;;;;;5034241;28;20029;-85
2023/06/12 00:41:29;;;;;;;1999.90;999.90;;;13.80;64.70;;;;;;5033357;28;20036;-86
2023/06/12 00:43:54;;;;;;;1999.90;999.90;;;13.70;64.80;;;;;;5034659;28;20029;-86
2023/06/12 00:46:21;;;;;;;1999.90;999.90;;;13.70;64.90;;;;;;5031975;28;20029;-86
2023/06/12 00:48:47;;;;;;;1999.90;999.90;;;13.70;64.90;;;;;;5049259;28;20086;-86
2023/06/12 00:51:13;;;;;;;1999.90;999.90;;;13.70;64.90;;;;;;5030948;28;20033;-86
2023/06/12 00:53:38;;;;;;;1999.90;999.90;;;13.70;65.40;;;;;;5031216;28;20041;-85
2023/06/12 00:56:04;;;;;;;1999.90;999.90;;;13.80;65.00;;;;;;5033027;28;20033;-86
2023/06/12 00:58:30;;;;;;;1999.90;999.90;;;13.60;65.60;;;;;;5031946;28;20038;-85
2023/06/12 01:00:56;;;;;;;1999.90;999.90;;;13.60;66.10;;;;;;5034930;28;20404;-85
2023/06/12 01:03:24;;;;;;;1999.90;999.90;;;13.50;66.30;;;;;;5035253;28;20107;-86
2023/06/12 01:05:51;;;;;;;1566.13;811.45;;;13.50;66.30;;;;;;5032984;28;20475;-86
2023/06/12 01:08:47;;;;;;;453.50;421.98;;;13.60;66.30;;;;;;5033555;28;20385;-86
2023/06/12 01:11:13;;;;;;;318.63;296.38;;;13.40;66.90;;;;;;5035374;28;20120;-86
2023/06/12 01:13:39;;;;;;;470.73;439.55;;;13.40;67.10;;;;;;5033310;28;20041;-85
2023/06/12 01:16:05;;;;;;;512.25;477.42;;;13.30;67.70;;;;;;5032749;28;20045;-85
2023/06/12 01:18:32;;;;;;;535.03;499.98;;;13.20;68.20;;;;;;5031235;28;20511;-85
2023/06/12 01:21:01;;;;;;;553.03;518.15;;;13.10;68.60;;;;;;5033973;28;20096;-84
2023/06/12 01:23:45;;;;;;;557.05;523.70;;;13.00;69.00;;;;;;5029143;28;20547;-84
2023/06/12 01:26:21;;;;;;;553.85;522.30;;;13.00;69.30;;;;;;5028101;28;20564;-86
2023/06/12 01:29:08;;;;;;;606.35;570.33;;;12.90;69.60;;;;;;5033316;28;20032;-85
2023/06/12 01:32:01;;;;;;;595.58;562.38;;;13.00;69.90;;;;;;5030367;28;20021;-85
2023/06/12 01:34:35;;;;;;;564.50;534.72;;;12.90;70.50;;;;;;5028803;28;20029;-86
2023/06/12 01:37:14;;;;;;;635.42;600.42;;;12.90;70.50;;;;;;5033002;28;20112;-85
2023/06/12 01:39:44;;;;;;;582.65;552.08;;;13.00;70.50;;;;;;5028293;28;20029;-85
2023/06/12 01:42:10;;;;;;;661.45;628.42;;;13.00;71.10;;;;;;5043785;28;20029;-86
2023/06/12 01:44:36;;;;;;;632.92;600.78;;;13.00;70.90;;;;;;5010776;28;20059;-86
2023/06/12 01:47:03;;;;;;;690.85;653.80;;;13.10;71.20;;;;;;5029234;28;20120;-85
2023/06/12 01:49:28;;;;;;;640.72;608.67;;;12.90;71.40;;;;;;5029659;28;20029;-85
2023/06/12 01:51:54;;;;;;;588.78;560.13;;;12.90;72.00;;;;;;5033284;28;20033;-85
2023/06/12 01:54:22;;;;;;;584.53;557.20;;;12.90;72.70;;;;;;5011357;28;20033;-85
2023/06/12 01:56:48;;;;;;;647.50;614.22;;;12.80;72.50;;;;;;5025426;28;20041;-85
2023/06/12 01:59:15;;;;;;;560.58;535.03;;;12.80;72.70;;;;;;5028026;28;20040;-85
2023/06/12 02:01:41;;;;;;;471.45;450.92;;;12.90;72.30;;;;;;5037521;28;20041;-85
2023/06/12 02:04:06;;;;;;;574.60;547.47;;;12.90;73.30;;;;;;5032530;28;20025;-85
2023/06/12 02:06:32;;;;;;;472.40;452.15;;;12.90;72.60;;;;;;5028582;28;20095;-85
2023/06/12 02:08:57;;;;;;;568.42;541.08;;;12.90;72.90;;;;;;5036184;28;20021;-85
2023/06/12 02:11:23;;;;;;;491.65;470.10;;;12.80;73.00;;;;;;5031257;28;20485;-85
2023/06/12 02:13:49;;;;;;;471.45;451.02;;;12.70;73.10;;;;;;5038897;28;20523;-84
2023/06/12 02:16:16;;;;;;;508.90;486.00;;;12.70;73.20;;;;;;5037026;28;20098;-85
2023/06/12 02:18:41;;;;;;;451.52;432.33;;;12.70;73.80;;;;;;5016242;28;20032;-85
2023/06/12 02:21:07;;;;;;;446.20;427.02;;;12.60;73.50;;;;;;5032427;28;20050;-85
2023/06/12 02:23:33;;;;;;;428.45;410.52;;;12.50;74.40;;;;;;5032361;28;20112;-85
2023/06/12 02:25:58;;;;;;;417.63;400.02;;;12.30;74.50;;;;;;5035730;28;20053;-85
2023/06/12 02:28:24;;;;;;;411.42;394.00;;;12.20;75.40;;;;;;5035544;28;20037;-85
2023/06/12 02:30:50;;;;;;;411.52;394.55;;;12.30;75.40;;;;;;5015255;28;20727;-85
2023/06/12 02:33:15;;;;;;;385.85;370.23;;;12.30;75.70;;;;;;5031498;28;20460;-85
2023/06/12 02:35:42;;;;;;;392.45;376.77;;;12.30;75.70;;;;;;5051704;28;20076;-85
2023/06/12 02:38:07;;;;;;;384.83;369.45;;;12.20;76.50;;;;;;5034094;28;20463;-86
2023/06/12 02:40:33;;;;;;;371.33;356.38;;;12.10;76.60;;;;;;5030410;28;20030;-85
2023/06/12 02:42:59;;;;;;;371.05;356.23;;;12.10;76.90;;;;;;5012816;28;20080;-85
2023/06/12 02:45:26;;;;;;;357.15;342.75;;;12.10;77.10;;;;;;5035503;28;20092;-85
2023/06/12 02:47:52;;;;;;;403.50;386.95;;;12.00;77.80;;;;;;5029950;28;20029;-85
2023/06/12 02:50:17;;;;;;;386.10;370.30;;;11.90;78.70;;;;;;5032329;28;20840;-85
2023/06/12 02:52:43;;;;;;;388.00;371.63;;;12.00;78.60;;;;;;5033757;28;20108;-85
2023/06/12 02:55:09;;;;;;;398.30;381.77;;;11.90;78.20;;;;;;5032203;28;20095;-85
2023/06/12 02:57:35;;;;;;;405.00;387.80;;;11.90;79.10;;;;;;5031326;28;20058;-86
2023/06/12 03:00:02;;;;;;;417.05;398.83;;;11.90;79.10;;;;;;5030575;28;20401;-85
2023/06/12 03:02:27;;;;;;;367.05;352.20;;;11.80;80.10;;;;;;5032957;28;20065;-85
2023/06/12 03:04:54;;;;;;;375.40;360.38;;;11.80;79.70;;;;;;5033225;28;20420;-85
2023/06/12 03:07:19;;;;;;;408.05;391.17;;;11.70;79.70;;;;;;5013720;28;20526;-85
2023/06/12 03:09:45;;;;;;;333.90;320.35;;;11.60;79.90;;;;;;5030014;28;20041;-85
2023/06/12 03:12:11;;;;;;;375.50;360.48;;;11.60;80.70;;;;;;5036195;28;20032;-85
2023/06/12 03:14:38;;;;;;;327.83;315.15;;;11.60;81.10;;;;;;5029728;28;20038;-85
2023/06/12 03:17:07;;;;;;;310.55;298.67;;;11.70;81.00;;;;;;5027794;28;20088;-86
2023/06/12 03:19:33;;;;;;;319.45;307.02;;;11.80;81.20;;;;;;5033623;28;20040;-84
2023/06/12 03:21:59;;;;;;;320.95;308.63;;;11.70;81.30;;;;;;5030552;28;20046;-84
2023/06/12 03:24:29;;;;;;;348.95;335.00;;;11.80;81.60;;;;;;5030085;28;20026;-84
2023/06/12 03:26:55;;;;;;;305.90;293.80;;;11.80;81.90;;;;;;5032804;28;20029;-85
2023/06/12 03:29:20;;;;;;;224.82;215.50;;;11.80;81.80;;;;;;5048050;28;20570;-85
2023/06/12 03:31:46;;;;;;;272.73;262.02;;;11.80;82.10;;;;;;5034728;28;20045;-85
2023/06/12 03:34:12;;;;;;;285.08;274.10;;;11.80;82.20;;;;;;5031514;28;20086;-85
2023/06/12 03:36:38;;;;;;;288.88;277.48;;;11.80;81.80;;;;;;5033546;28;20033;-85
2023/06/12 03:39:05;;;;;;;269.55;258.67;;;11.80;82.40;;;;;;5043422;28;20113;-84
2023/06/12 03:41:32;;;;;;;268.58;257.80;;;11.80;82.70;;;;;;5032115;28;20021;-84
2023/06/12 03:43:59;;;;;;;170.30;162.90;;;11.80;81.80;;;;;;5043732;28;20113;-85
2023/06/12 03:46:24;;;;;;;171.60;164.77;;;11.60;83.10;;;;;;5044852;28;20026;-86
2023/06/12 03:48:50;;;;;;;148.85;142.75;;;11.80;83.50;;;;;;5030706;28;20034;-85
2023/06/12 03:51:16;;;;;;;175.77;168.80;;;11.80;83.70;;;;;;5032424;28;20030;-85
2023/06/12 03:53:42;;;;;;;143.88;138.00;;;11.90;83.90;;;;;;5031532;28;20083;-85
2023/06/12 03:56:08;;;;;;;147.63;141.85;;;12.00;84.00;;;;;;5029479;28;20033;-85
2023/06/12 03:58:34;;;;;;;167.25;160.48;;;12.20;83.20;;;;;;5031155;28;20033;-85
2023/06/12 04:01:00;;;;;;;154.45;148.10;;;12.20;83.80;;;;;;5030406;28;20025;-85
2023/06/12 04:03:26;;;;;;;162.75;156.57;;;12.20;83.90;;;;;;5012787;28;20083;-86
2023/06/12 04:05:52;;;;;;;138.40;132.35;;;12.30;83.70;;;;;;5031848;28;20030;-85
2023/06/12 04:08:18;;;;;;;99.68;95.32;;;12.40;83.60;;;;;;5013363;28;20107;-85
2023/06/12 04:10:44;;;;;;;135.85;130.20;;;12.40;83.70;;;;;;5044263;28;20030;-84
2023/06/12 04:13:10;;;;;;;92.63;88.78;;;12.40;83.50;;;;;;5027526;28;20033;-85
2023/06/12 04:15:37;;;;;;;163.98;157.57;;;12.50;83.30;;;;;;5029026;28;20108;-85
2023/06/12 04:18:04;;;;;;;122.80;117.60;;;12.60;83.00;;;;;;5034053;28;20037;-85
2023/06/12 04:20:32;;;;;;;102.80;98.40;;;12.60;83.40;;;;;;5025018;28;20528;-85
2023/06/12 04:22:58;;;;;;;76.30;72.53;;;12.60;83.40;;;;;;5031159;28;20037;-84
2023/06/12 04:25:26;;;;;;;98.40;94.00;;;12.70;83.30;;;;;;5029805;28;20021;-85
2023/06/12 04:27:52;;;;;;;91.65;87.75;;;12.80;83.70;;;;;;5029976;28;20040;-86
2023/06/12 04:30:21;;;;;;;182.90;175.73;;;12.80;83.30;;;;;;5034114;28;20098;-87
2023/06/12 04:32:47;;;;;;;82.85;79.00;;;12.90;83.10;;;;;;5042943;28;20030;-87
2023/06/12 04:35:16;;;;;;;81.35;77.60;;;13.00;82.80;;;;;;5029019;28;20071;-86
2023/06/12 04:37:42;;;;;;;100.90;96.50;;;13.10;82.60;;;;;;5033071;28;20068;-85
2023/06/12 04:40:11;;;;;;;103.28;98.93;;;13.10;82.60;;;;;;5015287;28;20038;-86
2023/06/12 04:42:37;;;;;;;96.57;92.22;;;13.10;82.50;;;;;;5032120;28;20026;-85
2023/06/12 04:45:04;;;;;;;127.53;122.18;;;13.20;81.90;;;;;;5029930;28;20049;-87
2023/06/12 04:47:30;;;;;;;131.40;126.00;;;13.30;82.10;;;;;;5010644;28;20026;-86
2023/06/12 04:49:57;;;;;;;75.07;71.65;;;13.40;81.70;;;;;;5026822;28;20029;-86
2023/06/12 04:52:24;;;;;;;104.68;100.07;;;13.40;81.30;;;;;;5026836;28;20037;-86
2023/06/12 04:54:52;;;;;;;87.90;84.15;;;13.50;81.40;;;;;;5019911;28;20378;-86
2023/06/12 04:57:18;;;;;;;88.97;84.50;;;13.50;81.20;;;;;;5030418;28;20033;-87
2023/06/12 04:59:44;;;;;;;80.85;77.18;;;13.50;81.10;;;;;;5030380;28;20037;-86
2023/06/12 05:02:11;;;;;;;83.97;80.32;;;13.50;81.30;;;;;;5033599;28;20021;-88
2023/06/12 05:04:37;;;;;;;67.80;64.63;;;13.60;81.20;;;;;;5028043;28;20017;-86
2023/06/12 05:07:14;;;;;;;106.43;101.95;;;13.60;80.50;;;;;;5044498;28;20461;-87
2023/06/12 05:09:40;;;;;;;105.63;101.00;;;13.70;80.80;;;;;;5027385;28;20035;-86
2023/06/12 05:12:06;;;;;;;80.93;77.03;;;13.80;80.40;;;;;;5029134;28;20097;-86
2023/06/12 05:14:41;;;;;;;71.05;67.72;;;13.90;80.40;;;;;;5029449;28;20029;-87
2023/06/12 05:17:07;;;;;;;107.60;102.85;;;14.00;79.90;;;;;;5027929;28;20082;-89
2023/06/12 05:19:34;;;;;;;96.65;92.32;;;14.00;79.70;;;;;;5028026;28;20036;-85
2023/06/12 05:21:59;;;;;;;77.43;73.78;;;14.10;79.80;;;;;;5028714;28;20506;-85
2023/06/12 05:24:25;;;;;;;98.78;94.30;;;14.20;79.10;;;;;;5026373;28;20152;-80
2023/06/12 05:26:51;;;;;;;117.30;112.30;;;14.30;78.90;;;;;;5028224;28;20033;-77
2023/06/12 05:29:17;;;;;;;89.88;85.95;;;14.30;80.20;;;;;;5028741;28;20037;-77
2023/06/12 05:31:43;;;;;;;136.55;130.30;;;14.40;78.90;;;;;;5026217;28;20590;-77
2023/06/12 05:34:09;;;;;;;86.13;82.43;;;14.50;77.80;;;;;;5032242;28;20029;-78
2023/06/12 05:36:36;;;;;;;136.15;130.43;;;14.60;78.00;;;;;;5030704;28;20791;-77
2023/06/12 05:39:03;;;;;;;121.30;115.97;;;14.70;78.70;;;;;;5031102;28;20385;-78
2023/06/12 05:41:28;;;;;;;133.20;127.55;;;14.80;79.00;;;;;;5027892;28;20028;-77
2023/06/12 05:43:54;;;;;;;140.23;134.65;;;15.00;77.30;;;;;;5032362;28;20025;-78
2023/06/12 05:46:20;;;;;;;159.48;153.15;;;15.00;76.90;;;;;;5026771;28;20110;-77
2023/06/12 05:48:45;;;;;;;145.88;139.85;;;15.10;77.50;;;;;;5030158;28;20176;-77
2023/06/12 05:51:11;;;;;;;138.05;132.63;;;15.20;77.80;;;;;;5029398;28;20052;-77
2023/06/12 05:53:37;;;;;;;157.93;151.55;;;15.30;77.30;;;;;;5029049;28;20037;-77
2023/06/12 05:56:03;;;;;;;104.50;99.95;;;15.40;77.30;;;;;;5030275;28;20347;-78
2023/06/12 05:58:28;;;;;;;119.10;114.22;;;15.60;76.10;;;;;;5027636;28;20117;-78
2023/06/12 06:00:55;;;;;;;169.02;162.07;;;15.60;76.20;;;;;;5028710;28;20025;-78
2023/06/12 06:03:23;;;;;;;187.98;180.75;;;15.60;76.00;;;;;;5030822;28;20388;-78
2023/06/12 06:05:49;;;;;;;161.02;154.20;;;15.80;76.90;;;;;;5033322;28;20566;-78
2023/06/12 06:08:15;;;;;;;141.30;135.48;;;15.80;77.00;;;;;;5031340;28;20037;-77
2023/06/12 06:10:41;;;;;;;153.55;147.27;;;16.00;75.40;;;;;;5028002;28;20480;-80
2023/06/12 06:13:07;;;;;;;205.68;197.85;;;16.20;75.60;;;;;;5045926;28;20521;-85
2023/06/12 06:15:33;;;;;;;166.65;159.80;;;16.20;75.10;;;;;;5028825;28;20034;-84
2023/06/12 06:17:59;;;;;;;99.00;94.82;;;16.30;75.40;;;;;;5030445;28;20750;-85
2023/06/12 06:20:26;;;;;;;216.75;208.63;;;16.40;73.40;;;;;;5031329;28;20081;-85
2023/06/12 06:22:52;;;;;;;172.10;165.35;;;16.50;74.60;;;;;;5028264;28;20028;-84
2023/06/12 06:25:18;;;;;;;217.15;208.68;;;16.60;74.30;;;;;;5025311;28;20033;-84
2023/06/12 06:27:44;;;;;;;101.95;97.78;;;16.80;73.10;;;;;;5032372;28;20029;-83
2023/06/12 06:30:10;;;;;;;157.68;150.95;;;17.00;71.50;;;;;;5014939;28;20026;-84
2023/06/12 06:32:36;;;;;;;258.77;247.88;;;17.10;71.40;;;;;;5031522;28;20087;-84
2023/06/12 06:35:03;;;;;;;230.65;221.45;;;17.30;71.60;;;;;;5045998;28;20101;-84
2023/06/12 06:37:29;;;;;;;251.68;241.85;;;17.40;69.00;;;;;;5031416;28;20029;-84
2023/06/12 06:39:54;;;;;;;300.70;288.63;;;17.50;69.40;;;;;;5030412;28;20052;-85
2023/06/12 06:42:20;;;;;;;210.05;201.25;;;17.60;69.10;;;;;;5032935;28;20508;-84
2023/06/12 06:44:47;;;;;;;271.52;261.00;;;17.60;68.00;;;;;;5031431;28;20038;-85
2023/06/12 06:47:12;;;;;;;371.42;355.98;;;17.70;69.30;;;;;;5034787;28;20498;-84
2023/06/12 06:49:38;;;;;;;360.20;345.27;;;17.90;68.10;;;;;;5014747;28;20030;-84
2023/06/12 06:52:05;;;;;;;320.67;307.63;;;18.00;67.90;;;;;;5033614;28;20032;-84
2023/06/12 06:54:30;;;;;;;349.33;335.25;;;18.20;67.20;;;;;;5033251;28;20144;-83
2023/06/12 06:56:56;;;;;;;237.00;227.07;;;18.40;67.50;;;;;;5037954;28;20183;-83
2023/06/12 06:59:23;;;;;;;435.17;417.23;;;18.40;63.60;;;;;;5031578;28;20034;-84
2023/06/12 07:01:48;;;;;;;454.77;435.55;;;18.50;65.50;;;;;;5018399;28;20108;-84
2023/06/12 07:04:14;;;;;;;387.02;370.63;;;18.70;65.40;;;;;;5036472;28;20104;-84
2023/06/12 07:06:40;;;;;;;483.25;462.55;;;18.80;62.50;;;;;;5033955;28;20025;-84
2023/06/12 07:09:07;;;;;;;472.85;450.77;;;18.90;63.40;;;;;;5034989;28;20066;-84
2023/06/12 07:11:32;;;;;;;473.33;452.90;;;19.00;62.50;;;;;;5034138;28;20029;-83
2023/06/12 07:13:58;;;;;;;494.63;472.50;;;19.00;63.90;;;;;;5036612;28;20045;-83
2023/06/12 07:16:24;;;;;;;549.92;523.72;;;18.90;63.60;;;;;;5032532;28;20684;-84
2023/06/12 07:18:50;;;;;;;542.03;517.30;;;19.30;62.40;;;;;;5036644;28;20440;-83
2023/06/12 07:21:15;;;;;;;451.45;432.50;;;19.50;61.80;;;;;;5049944;28;20081;-83
2023/06/12 07:23:41;;;;;;;570.45;541.63;;;19.40;61.20;;;;;;5036493;28;20036;-83
2023/06/12 07:26:07;;;;;;;606.42;573.88;;;19.50;60.40;;;;;;5034917;28;20378;-83
2023/06/12 07:28:32;;;;;;;596.97;566.25;;;19.40;58.20;;;;;;5032091;28;20041;-83
2023/06/12 07:30:58;;;;;;;734.03;692.95;;;19.50;58.90;;;;;;5034050;28;20057;-83
2023/06/12 07:33:24;;;;;;;802.13;753.33;;;19.60;58.50;;;;;;5034280;28;20435;-83
2023/06/12 07:35:49;;;;;;;879.38;818.58;;;19.90;58.70;;;;;;5033908;28;20033;-84
2023/06/12 07:38:15;;;;;;;1643.55;882.42;;;19.90;55.80;;;;;;5017836;28;20091;-83
2023/06/12 07:40:41;;;;;;;269.48;241.02;;;20.00;55.30;;;;;;5034128;28;20032;-83
2023/06/12 07:43:07;;;;;;;764.78;719.90;;;20.20;55.40;;;;;;5033722;28;20087;-83
2023/06/12 07:45:32;;;;;;;638.67;598.50;;;20.20;54.60;;;;;;5037403;28;20105;-84
2023/06/12 07:47:59;;;;;;;665.83;617.92;;;20.20;53.20;;;;;;5031653;28;20057;-85
2023/06/12 07:50:25;;;;;;;753.80;704.70;;;20.30;54.00;;;;;;5031782;28;20500;-84
2023/06/12 07:52:51;;;;;;;747.70;698.75;;;20.50;54.40;;;;;;5033813;28;20044;-85
2023/06/12 07:55:16;;;;;;;1999.90;999.90;;;20.40;55.50;;;;;;5030923;28;20505;-85
2023/06/12 07:57:42;;;;;;;1999.90;999.90;;;20.60;50.90;;;;;;5028352;28;20040;-84
2023/06/12 08:00:08;;;;;;;1999.90;999.90;;;20.30;50.60;;;;;;5031526;28;20037;-84
2023/06/12 08:02:35;;;;;;;1999.90;999.90;;;20.50;51.10;;;;;;5030397;28;20060;-84
2023/06/12 08:05:03;;;;;;;1999.90;999.90;;;20.70;50.10;;;;;;5031863;28;20564;-84
2023/06/12 08:07:30;;;;;;;1999.90;999.90;;;20.60;50.10;;;;;;5035051;28;20026;-84
2023/06/12 08:09:56;;;;;;;1999.90;999.90;;;21.00;52.30;;;;;;5034170;28;20033;-83
2023/06/12 08:12:22;;;;;;;1999.90;999.90;;;20.90;49.90;;;;;;5034959;28;20096;-84
2023/06/12 08:14:49;;;;;;;1999.90;999.90;;;20.80;49.40;;;;;;5033222;28;20158;-89
2023/06/12 08:17:15;;;;;;;1999.90;999.90;;;21.00;50.40;;;;;;5035250;28;20029;-85
2023/06/12 08:19:41;;;;;;;1999.90;999.90;;;21.10;48.20;;;;;;5032663;28;20523;-84
2023/06/12 08:22:11;;;;;;;1999.90;999.90;;;21.10;49.10;;;;;;5036678;28;20501;-85
2023/06/12 08:24:38;;;;;;;;;;;21.40;48.20;;;;;;5038861;28;20029;-85
2023/06/12 08:27:04;;;;;;;1999.90;999.90;;;21.20;46.70;;;;;;5036579;28;19948;-86
2023/06/12 08:29:30;;;;;;;1999.90;999.90;;;21.40;44.40;;;;;;5033290;28;20550;-85
2023/06/12 08:31:55;;;;;;;1999.90;999.90;;;21.70;43.30;;;;;;5032098;28;21521;-85
2023/06/12 08:34:24;;;;;;;1999.90;999.90;;;22.00;44.50;;;;;;5034621;28;20037;-85
2023/06/12 08:36:51;;;;;;;1999.90;999.90;;;22.10;41.60;;;;;;5030866;28;20039;-85
2023/06/12 08:39:17;;;;;;;1999.90;999.90;;;22.30;42.90;;;;;;5033473;28;20025;-83
2023/06/12 08:41:52;;;;;;;1999.90;999.90;;;22.40;43.00;;;;;;5018279;28;20087;-88
2023/06/12 08:44:19;;;;;;;1999.90;999.90;;;22.40;42.50;;;;;;5047784;28;20033;-83
2023/06/12 08:46:45;;;;;;;1999.90;999.90;;;22.70;41.20;;;;;;5032782;28;20400;-85
2023/06/12 08:49:15;;;;;;;1999.90;999.90;;;22.70;39.00;;;;;;5033584;28;20037;-85
2023/06/12 08:51:42;;;;;;;1999.90;999.90;;;22.60;39.40;;;;;;5029753;28;20441;-85
2023/06/12 08:54:08;;;;;;;1999.90;999.90;;;22.20;35.40;;;;;;5035747;28;20034;-85
2023/06/12 08:56:35;;;;;;;1999.90;999.90;;;22.40;37.30;;;;;;5029525;28;20060;-85
2023/06/12 08:59:03;;;;;;;1999.90;999.90;;;22.60;36.70;;;;;;5031270;28;20029;-86
2023/06/12 09:01:29;;;;;;;1999.90;999.90;;;22.80;35.50;;;;;;5035721;28;20025;-86
2023/06/12 09:04:00;;;;;;;1999.90;999.90;;;22.80;34.10;;;;;;5030731;28;20022;-86
2023/06/12 09:06:27;;;;;;;1999.90;999.90;;;23.20;33.40;;;;;;5021261;28;20037;-86
2023/06/12 09:08:53;;;;;;;1999.90;999.90;;;23.30;33.50;;;;;;5017159;28;20091;-85
2023/06/12 09:11:18;;;;;;;1999.90;999.90;;;23.00;34.90;;;;;;5034735;28;20033;-85
2023/06/12 09:13:44;;;;;;;1999.90;999.90;;;23.10;37.20;;;;;;5038508;28;20033;-85
2023/06/12 09:16:12;;;;;;;1999.90;999.90;;;23.30;38.10;;;;;;5037320;28;20452;-86
2023/06/12 09:18:51;;;;;;;1999.90;999.90;;;23.60;36.20;;;;;;5034963;28;20139;-85
2023/06/12 09:21:17;;;;;;;1999.90;999.90;;;23.70;38.10;;;;;;5040277;28;20106;-87
2023/06/12 09:23:45;;;;;;;1999.90;999.90;;;24.10;37.80;;;;;;5035179;28;20044;-85
2023/06/12 09:26:15;;;;;;;1999.90;999.90;;;24.10;35.40;;;;;;5037514;28;20025;-84
2023/06/12 09:28:44;;;;;;;1999.90;999.90;;;23.80;35.50;;;;;;5034472;28;20099;-86
2023/06/12 09:31:10;;;;;;;1999.90;999.90;;;23.70;33.00;;;;;;5033467;28;20568;-86
2023/06/12 09:33:42;;;;;;;1999.90;999.90;;;23.90;32.90;;;;;;5035583;28;20052;-86
2023/06/12 09:36:11;;;;;;;1999.90;999.90;;;24.10;31.90;;;;;;5033837;28;20036;-86
2023/06/12 09:38:37;;;;;;;1999.90;999.90;;;24.20;31.50;;;;;;5035385;28;20413;-86
2023/06/12 09:41:04;;;;;;;1999.90;999.90;;;24.20;31.90;;;;;;5031069;28;20036;-86
2023/06/12 09:43:31;;;;;;;1999.90;999.90;;;23.90;33.90;;;;;;5032228;28;20029;-84
2023/06/12 09:45:59;;;;;;;1999.90;999.90;;;24.20;31.40;;;;;;5033261;28;20101;-84
2023/06/12 09:48:35;;;;;;;1999.90;999.90;;;24.60;32.00;;;;;;5031812;28;20025;-83
2023/06/12 09:51:10;;;;;;;1999.90;999.90;;;24.40;29.90;;;;;;5030198;28;20134;-84
2023/06/12 09:53:39;;;;;;;1999.90;999.90;;;24.10;31.30;;;;;;5036621;28;20488;-83
2023/06/12 09:56:09;;;;;;;1999.90;999.90;;;24.00;32.30;;;;;;5031138;28;20033;-83
2023/06/12 09:58:38;;;;;;;1999.90;999.90;;;24.60;31.40;;;;;;5033155;28;20041;-82
2023/06/12 10:01:06;;;;;;;1999.90;999.90;;;24.70;33.00;;;;;;5031689;28;20111;-83
2023/06/12 10:03:39;;;;;;;1999.90;999.90;;;24.80;31.40;;;;;;5033821;28;20112;-84
2023/06/12 10:06:11;;;;;;;1999.90;999.90;;;24.50;31.50;;;;;;5032972;28;20088;-85
2023/06/12 10:08:37;;;;;;;1999.90;999.90;;;24.40;30.60;;;;;;5029852;28;20057;-82
2023/06/12 10:11:08;;;;;;;1999.90;999.90;;;24.40;30.20;;;;;;5031645;28;20060;-83
2023/06/12 10:13:35;;;;;;;1999.90;999.90;;;24.60;32.00;;;;;;5034893;28;20405;-84
2023/06/12 10:16:01;;;;;;;1999.90;999.90;;;24.90;31.80;;;;;;5033671;28;20428;-85
2023/06/12 10:18:28;;;;;;;1999.90;999.90;;;25.00;31.40;;;;;;5037289;28;20485;-83
2023/06/12 10:20:54;;;;;;;1999.90;999.90;;;24.70;31.00;;;;;;5031634;28;20053;-84
2023/06/12 10:23:21;;;;;;;1999.90;999.90;;;25.00;30.80;;;;;;5040150;28;20099;-85
2023/06/12 10:25:49;;;;;;;1999.90;999.90;;;25.40;30.10;;;;;;5040922;28;20053;-83
2023/06/12 10:28:15;;;;;;;1999.90;999.90;;;25.60;31.00;;;;;;5039691;28;20147;-85
2023/06/12 10:31:13;;;;;;;1999.90;999.90;;;25.10;32.20;;;;;;5037795;28;20053;-84
2023/06/12 10:33:57;;;;;;;1999.90;999.90;;;24.40;31.50;;;;;;5052482;28;20504;-83
2023/06/12 10:36:23;;;;;;;1999.90;999.90;;;25.40;32.70;;;;;;5032540;28;20112;-84
2023/06/12 10:38:52;;;;;;;1999.90;999.90;;;25.30;30.80;;;;;;5037046;28;20112;-84
2023/06/12 10:41:33;;;;;;;1999.90;999.90;;;24.90;29.90;;;;;;5030973;28;20036;-83
2023/06/12 10:43:59;;;;;;;1999.90;999.90;;;25.00;33.90;;;;;;5040300;28;20044;-84
2023/06/12 10:46:43;;;;;;;1999.90;999.90;;;25.30;30.20;;;;;;5035314;28;20481;-83
2023/06/12 10:49:10;;;;;;;1999.90;999.90;;;25.50;33.40;;;;;;5040647;28;20037;-84
2023/06/12 10:51:36;;;;;;;1999.90;999.90;;;25.30;30.40;;;;;;5037658;28;20037;-83
2023/06/12 10:54:03;;;;;;;1999.90;999.90;;;25.90;30.30;;;;;;5037958;28;20029;-82
2023/06/12 10:56:29;;;;;;;1999.90;999.90;;;25.80;30.00;;;;;;5034149;28;20029;-82
2023/06/12 10:58:57;;;;;;;1999.90;999.90;;;26.30;28.20;;;;;;5035862;28;20041;-83
2023/06/12 11:01:24;;;;;;;1999.90;999.90;;;26.40;29.80;;;;;;5020004;28;20025;-84
2023/06/12 11:03:50;;;;;;;1999.90;999.90;;;26.80;27.80;;;;;;5036827;28;20488;-83
2023/06/12 11:06:16;;;;;;;1999.90;999.90;;;26.80;27.40;;;;;;5038974;28;20060;-83
2023/06/12 11:08:43;;;;;;;1999.90;999.90;;;26.50;27.90;;;;;;5037898;28;20110;-84
2023/06/12 11:11:10;;;;;;;1999.90;999.90;;;26.40;27.40;;;;;;5038551;28;20029;-84
2023/06/12 11:13:40;;;;;;;1999.90;999.90;;;26.70;28.90;;;;;;5036168;28;20038;-84
2023/06/12 11:16:06;;;;;;;1999.90;999.90;;;27.20;28.00;;;;;;5035830;28;20042;-83
2023/06/12 11:18:32;;;;;;;1999.90;999.90;;;27.20;27.80;;;;;;5018620;28;20029;-84
2023/06/12 11:20:58;;;;;;;1999.90;999.90;;;27.20;26.10;;;;;;5038036;28;20090;-83
2023/06/12 11:23:28;;;;;;;1999.90;999.90;;;27.30;27.80;;;;;;5034346;28;20033;-84
2023/06/12 11:25:57;;;;;;;1999.90;999.90;;;28.20;27.50;;;;;;5031375;28;20029;-86
2023/06/12 11:28:25;;;;;;;1999.90;999.90;;;27.50;27.90;;;;;;5033318;28;20168;-84
2023/06/12 11:30:53;;;;;;;1999.90;999.90;;;27.80;26.80;;;;;;5033463;28;20400;-84
2023/06/12 11:33:20;;;;;;;1999.90;999.90;;;28.10;25.70;;;;;;5034573;28;20399;-83
2023/06/12 11:35:48;;;;;;;1999.90;999.90;;;27.00;27.00;;;;;;5033402;28;20397;-84
2023/06/12 11:38:18;;;;;;;1999.90;999.90;;;27.10;27.70;;;;;;5035933;28;20045;-84
2023/06/12 11:40:45;;;;;;;1999.90;999.90;;;28.10;27.30;;;;;;5036578;28;20037;-83
2023/06/12 11:43:11;;;;;;;1999.90;999.90;;;28.40;25.60;;;;;;5033463;28;20033;-85
2023/06/12 11:45:43;;;;;;;1999.90;999.90;;;28.20;26.00;;;;;;5033804;28;20032;-85
2023/06/12 11:48:14;;;;;;;1999.90;999.90;;;28.50;26.00;;;;;;5037621;28;20029;-84
2023/06/12 11:50:42;;;;;;;1999.90;999.90;;;29.20;25.10;;;;;;5033900;28;20033;-88
2023/06/12 11:53:07;;;;;;;1999.90;999.90;;;29.60;24.90;;;;;;5033472;28;20489;-85
2023/06/12 11:55:33;;;;;;;1999.90;999.90;;;28.70;24.90;;;;;;5038120;28;20121;-83
2023/06/12 11:58:01;;;;;;;1999.90;999.90;;;29.30;24.60;;;;;;5032717;28;20156;-84
2023/06/12 12:00:30;;;;;;;1999.90;999.90;;;29.30;24.90;;;;;;5035893;28;20013;-83
2023/06/12 12:03:01;;;;;;;1999.90;999.90;;;30.10;25.30;;;;;;5038201;28;20580;-84
2023/06/12 12:05:32;;;;;;;1999.90;999.90;;;29.60;25.50;;;;;;5016165;28;20394;-83